sensor_id;sensor_type;location;lat;lon;timestamp;temperature;humidity
15834;DHT22;8017;50.812;4.934;2023-02-08T00:02:31;-1.70;99.90
15834;DHT22;8017;50.812;4.934;2023-02-08T00:05:33;-1.70;99.90
15834;DHT22;8017;50.812;4.934;2023-02-08T00:08:37;-1.80;99.90
15834;DHT22;8017;50.812;4.934;2023-02-08T00:11:39;-1.90;99.90
15834;DHT22;8017;50.812;4.934;2023-02-08T00:14:41;-2.00;99.90
15834;DHT22;8017;50.812;4.934;2023-02-08T00:17:43;-2.00;99.90
15834;DHT22;8017;50.812;4.934;2023-02-08T00:20:45;-1.90;99.90
15834;DHT22;8017;50.812;4.934;2023-02-08T00:23:48;-2.00;99.90
15834;DHT22;8017;50.812;4.934;2023-02-08T00:26:50;-2.10;99.90
15834;DHT22;8017;50.812;4.934;2023-02-08T00:29:53;-2.10;99.90
15834;DHT22;8017;50.812;4.934;2023-02-08T00:32:55;-2.10;99.90
15834;DHT22;8017;50.812;4.934;2023-02-08T00:35:58;-2.20;99.90
15834;DHT22;8017;50.812;4.934;2023-02-08T00:39:01;-2.20;99.90
15834;DHT22;8017;50.812;4.934;2023-02-08T00:42:03;-2.20;99.90
15834;DHT22;8017;50.812;4.934;2023-02-08T00:45:06;-2.20;99.90
15834;DHT22;8017;50.812;4.934;2023-02-08T00:48:08;-2.20;99.90
15834;DHT22;8017;50.812;4.934;2023-02-08T00:51:11;-2.00;99.90
15834;DHT22;8017;50.812;4.934;2023-02-08T00:54:15;-2.10;99.90
15834;DHT22;8017;50.812;4.934;2023-02-08T00:57:18;-2.10;99.90
15834;DHT22;8017;50.812;4.934;2023-02-08T01:00:20;-2.10;99.90
15834;DHT22;8017;50.812;4.934;2023-02-08T01:03:23;-2.10;99.90
15834;DHT22;8017;50.812;4.934;2023-02-08T01:06:26;-2.10;99.90
15834;DHT22;8017;50.812;4.934;2023-02-08T01:09:29;-2.20;99.90
15834;DHT22;8017;50.812;4.934;2023-02-08T01:12:31;-2.20;99.90
15834;DHT22;8017;50.812;4.934;2023-02-08T01:15:33;-2.10;99.90
15834;DHT22;8017;50.812;4.934;2023-02-08T01:18:35;-2.10;99.90
15834;DHT22;8017;50.812;4.934;2023-02-08T01:21:39;-2.10;99.90
15834;DHT22;8017;50.812;4.934;2023-02-08T01:24:42;-2.20;99.90
15834;DHT22;8017;50.812;4.934;2023-02-08T01:27:44;-2.20;99.90
15834;DHT22;8017;50.812;4.934;2023-02-08T01:30:46;-2.20;99.90
15834;DHT22;8017;50.812;4.934;2023-02-08T01:33:48;-2.20;99.90
15834;DHT22;8017;50.812;4.934;2023-02-08T01:36:50;-2.20;99.90
15834;DHT22;8017;50.812;4.934;2023-02-08T01:39:53;-2.20;99.90
15834;DHT22;8017;50.812;4.934;2023-02-08T01:42:55;-2.10;99.90
15834;DHT22;8017;50.812;4.934;2023-02-08T01:45:57;-2.30;99.90
15834;DHT22;8017;50.812;4.934;2023-02-08T01:49:01;-2.30;99.90
15834;DHT22;8017;50.812;4.934;2023-02-08T01:52:07;-2.30;99.90
15834;DHT22;8017;50.812;4.934;2023-02-08T01:55:15;-2.30;99.90
15834;DHT22;8017;50.812;4.934;2023-02-08T01:58:18;-2.40;99.90
15834;DHT22;8017;50.812;4.934;2023-02-08T02:01:21;-2.40;99.90
15834;DHT22;8017;50.812;4.934;2023-02-08T02:04:24;-2.40;99.90
15834;DHT22;8017;50.812;4.934;2023-02-08T02:07:29;-2.50;99.90
15834;DHT22;8017;50.812;4.934;2023-02-08T02:10:34;-2.50;99.90
15834;DHT22;8017;50.812;4.934;2023-02-08T02:13:36;-2.50;99.90
15834;DHT22;8017;50.812;4.934;2023-02-08T02:16:38;-2.50;99.90
15834;DHT22;8017;50.812;4.934;2023-02-08T02:19:48;-2.50;99.90
15834;DHT22;8017;50.812;4.934;2023-02-08T02:27:16;-2.60;99.90
15834;DHT22;8017;50.812;4.934;2023-02-08T02:30:47;-2.60;99.90
15834;DHT22;8017;50.812;4.934;2023-02-08T02:33:59;-2.70;99.90
15834;DHT22;8017;50.812;4.934;2023-02-08T02:37:14;-2.70;99.90
15834;DHT22;8017;50.812;4.934;2023-02-08T02:40:25;-2.70;99.90
15834;DHT22;8017;50.812;4.934;2023-02-08T02:43:34;-2.70;99.90
15834;DHT22;8017;50.812;4.934;2023-02-08T02:46:45;-2.70;99.90
15834;DHT22;8017;50.812;4.934;2023-02-08T02:49:53;-2.70;99.90
15834;DHT22;8017;50.812;4.934;2023-02-08T02:52:59;-2.70;99.90
15834;DHT22;8017;50.812;4.934;2023-02-08T02:56:07;-2.70;99.90
15834;DHT22;8017;50.812;4.934;2023-02-08T02:59:12;-2.70;99.90
15834;DHT22;8017;50.812;4.934;2023-02-08T03:02:15;-2.60;99.90
15834;DHT22;8017;50.812;4.934;2023-02-08T03:05:18;-2.80;99.90
15834;DHT22;8017;50.812;4.934;2023-02-08T03:08:35;-2.90;99.90
15834;DHT22;8017;50.812;4.934;2023-02-08T03:11:45;-2.90;99.90
15834;DHT22;8017;50.812;4.934;2023-02-08T03:14:56;-2.90;99.90
15834;DHT22;8017;50.812;4.934;2023-02-08T03:18:04;-2.90;99.90
15834;DHT22;8017;50.812;4.934;2023-02-08T03:21:17;-2.80;99.90
15834;DHT22;8017;50.812;4.934;2023-02-08T03:24:26;-2.90;99.90
15834;DHT22;8017;50.812;4.934;2023-02-08T03:27:32;-2.90;99.90
15834;DHT22;8017;50.812;4.934;2023-02-08T03:30:43;-2.90;99.90
15834;DHT22;8017;50.812;4.934;2023-02-08T03:33:53;-3.00;99.90
15834;DHT22;8017;50.812;4.934;2023-02-08T03:37:04;-2.90;99.90
15834;DHT22;8017;50.812;4.934;2023-02-08T03:40:12;-2.90;99.90
15834;DHT22;8017;50.812;4.934;2023-02-08T03:43:19;-2.90;99.90
15834;DHT22;8017;50.812;4.934;2023-02-08T03:46:24;-2.80;99.90
15834;DHT22;8017;50.812;4.934;2023-02-08T03:49:31;-2.80;99.90
15834;DHT22;8017;50.812;4.934;2023-02-08T03:52:36;-2.80;99.90
15834;DHT22;8017;50.812;4.934;2023-02-08T03:55:40;-2.90;99.90
15834;DHT22;8017;50.812;4.934;2023-02-08T03:58:47;-2.90;99.90
15834;DHT22;8017;50.812;4.934;2023-02-08T04:01:56;-2.90;99.90
15834;DHT22;8017;50.812;4.934;2023-02-08T04:04:59;-2.90;99.90
15834;DHT22;8017;50.812;4.934;2023-02-08T04:08:03;-2.90;99.90
15834;DHT22;8017;50.812;4.934;2023-02-08T04:11:05;-2.90;99.90
15834;DHT22;8017;50.812;4.934;2023-02-08T04:14:07;-2.90;99.90
15834;DHT22;8017;50.812;4.934;2023-02-08T04:17:09;-2.90;99.90
15834;DHT22;8017;50.812;4.934;2023-02-08T04:20:11;-3.00;99.90
15834;DHT22;8017;50.812;4.934;2023-02-08T04:23:15;-3.00;99.90
15834;DHT22;8017;50.812;4.934;2023-02-08T04:26:17;-3.00;99.90
15834;DHT22;8017;50.812;4.934;2023-02-08T04:29:18;-3.00;99.90
15834;DHT22;8017;50.812;4.934;2023-02-08T04:32:20;-3.00;99.90
15834;DHT22;8017;50.812;4.934;2023-02-08T04:35:22;-2.90;99.90
15834;DHT22;8017;50.812;4.934;2023-02-08T04:38:26;-3.00;99.90
15834;DHT22;8017;50.812;4.934;2023-02-08T04:41:28;-3.00;99.90
15834;DHT22;8017;50.812;4.934;2023-02-08T04:44:29;-2.80;99.90
15834;DHT22;8017;50.812;4.934;2023-02-08T04:47:32;-2.70;99.90
15834;DHT22;8017;50.812;4.934;2023-02-08T04:50:34;-2.80;99.90
15834;DHT22;8017;50.812;4.934;2023-02-08T04:53:37;-2.70;99.90
15834;DHT22;8017;50.812;4.934;2023-02-08T04:56:39;-2.70;99.90
15834;DHT22;8017;50.812;4.934;2023-02-08T04:59:41;-2.80;99.90
15834;DHT22;8017;50.812;4.934;2023-02-08T05:02:43;-2.80;99.90
15834;DHT22;8017;50.812;4.934;2023-02-08T05:05:45;-2.70;99.90
15834;DHT22;8017;50.812;4.934;2023-02-08T05:08:48;-2.80;99.90
15834;DHT22;8017;50.812;4.934;2023-02-08T05:11:50;-2.70;99.90
15834;DHT22;8017;50.812;4.934;2023-02-08T05:14:52;-2.50;99.90
15834;DHT22;8017;50.812;4.934;2023-02-08T05:17:54;-2.40;99.90
15834;DHT22;8017;50.812;4.934;2023-02-08T05:20:57;-2.60;99.90
15834;DHT22;8017;50.812;4.934;2023-02-08T05:24:00;-2.60;99.90
15834;DHT22;8017;50.812;4.934;2023-02-08T05:27:02;-2.70;99.90
15834;DHT22;8017;50.812;4.934;2023-02-08T05:30:05;-2.80;99.90
15834;DHT22;8017;50.812;4.934;2023-02-08T05:33:07;-2.80;99.90
15834;DHT22;8017;50.812;4.934;2023-02-08T05:36:09;-2.90;99.90
15834;DHT22;8017;50.812;4.934;2023-02-08T05:39:13;-2.90;99.90
15834;DHT22;8017;50.812;4.934;2023-02-08T05:42:14;-2.80;99.90
15834;DHT22;8017;50.812;4.934;2023-02-08T05:45:16;-2.80;99.90
15834;DHT22;8017;50.812;4.934;2023-02-08T05:48:19;-2.80;99.90
15834;DHT22;8017;50.812;4.934;2023-02-08T05:51:21;-2.80;99.90
15834;DHT22;8017;50.812;4.934;2023-02-08T05:54:24;-2.80;99.90
15834;DHT22;8017;50.812;4.934;2023-02-08T05:57:26;-2.80;99.90
15834;DHT22;8017;50.812;4.934;2023-02-08T06:00:28;-2.90;99.90
15834;DHT22;8017;50.812;4.934;2023-02-08T06:03:30;-3.00;99.90
15834;DHT22;8017;50.812;4.934;2023-02-08T06:06:32;-3.00;99.90
15834;DHT22;8017;50.812;4.934;2023-02-08T06:09:35;-3.10;99.90
15834;DHT22;8017;50.812;4.934;2023-02-08T06:12:37;-3.10;99.90
15834;DHT22;8017;50.812;4.934;2023-02-08T06:15:39;-3.10;99.90
15834;DHT22;8017;50.812;4.934;2023-02-08T06:18:41;-3.10;99.90
15834;DHT22;8017;50.812;4.934;2023-02-08T06:21:43;-3.10;99.90
15834;DHT22;8017;50.812;4.934;2023-02-08T06:24:46;-3.10;99.90
15834;DHT22;8017;50.812;4.934;2023-02-08T06:27:48;-3.10;99.90
15834;DHT22;8017;50.812;4.934;2023-02-08T06:30:50;-3.10;99.90
15834;DHT22;8017;50.812;4.934;2023-02-08T06:33:52;-3.20;99.90
15834;DHT22;8017;50.812;4.934;2023-02-08T06:36:54;-3.10;99.90
15834;DHT22;8017;50.812;4.934;2023-02-08T06:39:58;-3.10;99.90
15834;DHT22;8017;50.812;4.934;2023-02-08T06:43:01;-3.10;99.90
15834;DHT22;8017;50.812;4.934;2023-02-08T06:46:03;-3.10;99.90
15834;DHT22;8017;50.812;4.934;2023-02-08T06:49:08;-3.00;99.90
15834;DHT22;8017;50.812;4.934;2023-02-08T06:52:10;-3.00;99.90
15834;DHT22;8017;50.812;4.934;2023-02-08T06:55:13;-2.90;99.90
15834;DHT22;8017;50.812;4.934;2023-02-08T06:58:15;-3.00;99.90
15834;DHT22;8017;50.812;4.934;2023-02-08T07:01:17;-3.00;99.90
15834;DHT22;8017;50.812;4.934;2023-02-08T07:04:19;-3.00;99.90
15834;DHT22;8017;50.812;4.934;2023-02-08T07:07:21;-3.00;99.90
15834;DHT22;8017;50.812;4.934;2023-02-08T07:10:24;-3.00;99.90
15834;DHT22;8017;50.812;4.934;2023-02-08T07:13:26;-3.00;99.90
15834;DHT22;8017;50.812;4.934;2023-02-08T07:16:28;-3.10;99.90
15834;DHT22;8017;50.812;4.934;2023-02-08T07:19:30;-3.10;99.90
15834;DHT22;8017;50.812;4.934;2023-02-08T07:22:32;-3.00;99.90
15834;DHT22;8017;50.812;4.934;2023-02-08T07:25:36;-3.00;99.90
15834;DHT22;8017;50.812;4.934;2023-02-08T07:28:38;-2.80;99.90
15834;DHT22;8017;50.812;4.934;2023-02-08T07:31:40;-2.80;99.90
15834;DHT22;8017;50.812;4.934;2023-02-08T07:34:42;-2.70;99.90
15834;DHT22;8017;50.812;4.934;2023-02-08T07:37:45;-2.80;99.90
15834;DHT22;8017;50.812;4.934;2023-02-08T07:40:48;-2.70;99.90
15834;DHT22;8017;50.812;4.934;2023-02-08T07:43:50;-2.60;99.90
15834;DHT22;8017;50.812;4.934;2023-02-08T07:46:52;-2.60;99.90
15834;DHT22;8017;50.812;4.934;2023-02-08T07:49:54;-2.50;99.90
15834;DHT22;8017;50.812;4.934;2023-02-08T07:52:56;-2.50;99.90
15834;DHT22;8017;50.812;4.934;2023-02-08T07:56:00;-2.40;99.90
15834;DHT22;8017;50.812;4.934;2023-02-08T07:59:02;-2.30;99.90
15834;DHT22;8017;50.812;4.934;2023-02-08T08:02:04;-2.20;99.90
15834;DHT22;8017;50.812;4.934;2023-02-08T08:05:06;-2.10;99.90
15834;DHT22;8017;50.812;4.934;2023-02-08T08:08:10;-2.10;99.90
15834;DHT22;8017;50.812;4.934;2023-02-08T08:11:13;-2.00;99.90
15834;DHT22;8017;50.812;4.934;2023-02-08T08:14:15;-1.90;99.90
15834;DHT22;8017;50.812;4.934;2023-02-08T08:17:18;-1.90;99.90
15834;DHT22;8017;50.812;4.934;2023-02-08T08:20:20;-1.80;99.90
15834;DHT22;8017;50.812;4.934;2023-02-08T08:23:22;-1.80;99.90
15834;DHT22;8017;50.812;4.934;2023-02-08T08:26:25;-1.70;99.90
15834;DHT22;8017;50.812;4.934;2023-02-08T08:29:30;-1.60;99.90
15834;DHT22;8017;50.812;4.934;2023-02-08T08:32:32;-1.60;99.90
15834;DHT22;8017;50.812;4.934;2023-02-08T08:35:34;-1.60;99.90
15834;DHT22;8017;50.812;4.934;2023-02-08T08:38:36;-1.50;99.90
15834;DHT22;8017;50.812;4.934;2023-02-08T08:41:41;-1.50;99.90
15834;DHT22;8017;50.812;4.934;2023-02-08T08:44:43;-1.40;99.90
15834;DHT22;8017;50.812;4.934;2023-02-08T08:47:45;-1.30;99.90
15834;DHT22;8017;50.812;4.934;2023-02-08T08:50:47;-1.30;99.90
15834;DHT22;8017;50.812;4.934;2023-02-08T08:53:49;-1.10;99.90
15834;DHT22;8017;50.812;4.934;2023-02-08T08:56:52;-1.00;99.90
15834;DHT22;8017;50.812;4.934;2023-02-08T08:59:54;-0.80;99.90
15834;DHT22;8017;50.812;4.934;2023-02-08T09:02:56;-0.70;99.90
15834;DHT22;8017;50.812;4.934;2023-02-08T09:05:58;-0.60;99.90
15834;DHT22;8017;50.812;4.934;2023-02-08T09:09:00;-0.50;99.90
15834;DHT22;8017;50.812;4.934;2023-02-08T09:12:04;-0.40;99.90
15834;DHT22;8017;50.812;4.934;2023-02-08T09:15:06;-0.30;99.90
15834;DHT22;8017;50.812;4.934;2023-02-08T09:18:08;-0.20;99.90
15834;DHT22;8017;50.812;4.934;2023-02-08T09:21:12;-0.10;99.90
15834;DHT22;8017;50.812;4.934;2023-02-08T09:24:15;0.10;99.90
15834;DHT22;8017;50.812;4.934;2023-02-08T09:27:18;0.20;99.90
15834;DHT22;8017;50.812;4.934;2023-02-08T09:30:20;0.20;99.90
15834;DHT22;8017;50.812;4.934;2023-02-08T09:33:22;0.40;99.90
15834;DHT22;8017;50.812;4.934;2023-02-08T09:36:26;0.50;99.90
15834;DHT22;8017;50.812;4.934;2023-02-08T09:39:28;0.60;99.90
15834;DHT22;8017;50.812;4.934;2023-02-08T09:42:38;0.70;99.90
15834;DHT22;8017;50.812;4.934;2023-02-08T09:45:49;0.80;99.90
15834;DHT22;8017;50.812;4.934;2023-02-08T09:48:54;0.90;99.90
15834;DHT22;8017;50.812;4.934;2023-02-08T09:51:59;1.10;99.90
15834;DHT22;8017;50.812;4.934;2023-02-08T09:55:15;1.20;99.90
15834;DHT22;8017;50.812;4.934;2023-02-08T09:58:25;1.40;99.90
15834;DHT22;8017;50.812;4.934;2023-02-08T10:01:30;1.50;99.90
15834;DHT22;8017;50.812;4.934;2023-02-08T10:04:38;1.60;99.90
15834;DHT22;8017;50.812;4.934;2023-02-08T10:07:42;1.80;99.90
15834;DHT22;8017;50.812;4.934;2023-02-08T10:10:52;1.80;99.90
15834;DHT22;8017;50.812;4.934;2023-02-08T10:14:08;2.10;99.90
15834;DHT22;8017;50.812;4.934;2023-02-08T10:21:12;2.30;99.90
15834;DHT22;8017;50.812;4.934;2023-02-08T10:24:30;2.30;99.90
15834;DHT22;8017;50.812;4.934;2023-02-08T10:27:45;2.40;99.90
15834;DHT22;8017;50.812;4.934;2023-02-08T10:30:55;2.60;99.90
15834;DHT22;8017;50.812;4.934;2023-02-08T10:34:01;2.70;99.90
15834;DHT22;8017;50.812;4.934;2023-02-08T10:37:12;3.00;99.90
15834;DHT22;8017;50.812;4.934;2023-02-08T10:40:23;3.10;99.90
15834;DHT22;8017;50.812;4.934;2023-02-08T10:43:33;3.20;99.90
15834;DHT22;8017;50.812;4.934;2023-02-08T10:46:43;3.30;99.90
15834;DHT22;8017;50.812;4.934;2023-02-08T10:49:52;3.30;99.90
15834;DHT22;8017;50.812;4.934;2023-02-08T10:52:55;3.40;99.90
15834;DHT22;8017;50.812;4.934;2023-02-08T10:55:57;3.60;99.90
15834;DHT22;8017;50.812;4.934;2023-02-08T10:59:04;3.60;99.90
15834;DHT22;8017;50.812;4.934;2023-02-08T11:02:22;3.60;99.90
15834;DHT22;8017;50.812;4.934;2023-02-08T11:05:32;3.70;99.90
15834;DHT22;8017;50.812;4.934;2023-02-08T11:08:53;3.70;99.90
15834;DHT22;8017;50.812;4.934;2023-02-08T11:11:57;3.80;99.90
15834;DHT22;8017;50.812;4.934;2023-02-08T11:14:59;3.90;99.90
15834;DHT22;8017;50.812;4.934;2023-02-08T11:18:03;4.00;99.90
15834;DHT22;8017;50.812;4.934;2023-02-08T11:21:08;4.10;99.90
15834;DHT22;8017;50.812;4.934;2023-02-08T11:24:24;4.10;99.90
15834;DHT22;8017;50.812;4.934;2023-02-08T11:27:32;4.10;99.90
15834;DHT22;8017;50.812;4.934;2023-02-08T11:30:34;4.10;99.90
15834;DHT22;8017;50.812;4.934;2023-02-08T11:33:38;4.20;99.90
15834;DHT22;8017;50.812;4.934;2023-02-08T11:36:59;4.20;99.90
15834;DHT22;8017;50.812;4.934;2023-02-08T11:40:03;4.30;99.90
15834;DHT22;8017;50.812;4.934;2023-02-08T11:43:05;4.40;99.90
15834;DHT22;8017;50.812;4.934;2023-02-08T11:46:09;4.50;99.90
15834;DHT22;8017;50.812;4.934;2023-02-08T11:49:21;4.60;99.90
15834;DHT22;8017;50.812;4.934;2023-02-08T11:52:26;4.60;99.90
15834;DHT22;8017;50.812;4.934;2023-02-08T11:55:30;4.60;99.90
15834;DHT22;8017;50.812;4.934;2023-02-08T11:58:32;4.50;99.90
15834;DHT22;8017;50.812;4.934;2023-02-08T12:01:36;4.50;99.90
15834;DHT22;8017;50.812;4.934;2023-02-08T12:04:39;4.50;99.90
15834;DHT22;8017;50.812;4.934;2023-02-08T12:07:51;4.60;99.90
15834;DHT22;8017;50.812;4.934;2023-02-08T12:11:09;4.70;99.90
15834;DHT22;8017;50.812;4.934;2023-02-08T12:14:32;4.70;99.90
15834;DHT22;8017;50.812;4.934;2023-02-08T12:17:51;4.80;99.90
15834;DHT22;8017;50.812;4.934;2023-02-08T12:21:03;4.80;99.90
15834;DHT22;8017;50.812;4.934;2023-02-08T12:24:11;4.80;99.90
15834;DHT22;8017;50.812;4.934;2023-02-08T12:27:31;5.00;99.90
15834;DHT22;8017;50.812;4.934;2023-02-08T12:30:40;5.10;99.90
15834;DHT22;8017;50.812;4.934;2023-02-08T12:33:49;5.00;99.90
15834;DHT22;8017;50.812;4.934;2023-02-08T12:37:12;4.90;99.90
15834;DHT22;8017;50.812;4.934;2023-02-08T12:40:39;5.10;99.90
15834;DHT22;8017;50.812;4.934;2023-02-08T12:43:58;5.30;99.90
15834;DHT22;8017;50.812;4.934;2023-02-08T12:47:09;5.20;99.90
15834;DHT22;8017;50.812;4.934;2023-02-08T12:50:21;5.30;99.90
15834;DHT22;8017;50.812;4.934;2023-02-08T12:53:33;5.30;99.90
15834;DHT22;8017;50.812;4.934;2023-02-08T12:56:42;5.40;99.90
15834;DHT22;8017;50.812;4.934;2023-02-08T12:59:48;5.40;99.90
15834;DHT22;8017;50.812;4.934;2023-02-08T13:02:58;5.40;99.90
15834;DHT22;8017;50.812;4.934;2023-02-08T13:06:06;5.50;99.90
15834;DHT22;8017;50.812;4.934;2023-02-08T13:09:15;5.50;99.90
15834;DHT22;8017;50.812;4.934;2023-02-08T13:12:20;5.60;99.90
15834;DHT22;8017;50.812;4.934;2023-02-08T13:15:29;5.60;99.90
15834;DHT22;8017;50.812;4.934;2023-02-08T13:18:36;5.60;99.90
15834;DHT22;8017;50.812;4.934;2023-02-08T13:21:40;5.60;99.90
15834;DHT22;8017;50.812;4.934;2023-02-08T13:24:45;5.70;99.90
15834;DHT22;8017;50.812;4.934;2023-02-08T13:27:48;5.70;99.90
15834;DHT22;8017;50.812;4.934;2023-02-08T13:30:55;5.80;99.90
15834;DHT22;8017;50.812;4.934;2023-02-08T13:34:02;5.80;99.90
15834;DHT22;8017;50.812;4.934;2023-02-08T13:37:19;5.80;99.90
15834;DHT22;8017;50.812;4.934;2023-02-08T13:40:25;5.90;99.90
15834;DHT22;8017;50.812;4.934;2023-02-08T13:43:37;5.90;99.90
15834;DHT22;8017;50.812;4.934;2023-02-08T13:46:44;5.90;99.90
15834;DHT22;8017;50.812;4.934;2023-02-08T13:49:55;5.80;99.90
15834;DHT22;8017;50.812;4.934;2023-02-08T13:52:59;5.80;99.90
15834;DHT22;8017;50.812;4.934;2023-02-08T13:56:08;5.70;99.90
15834;DHT22;8017;50.812;4.934;2023-02-08T13:59:35;5.90;99.90
15834;DHT22;8017;50.812;4.934;2023-02-08T14:02:57;5.90;99.90
15834;DHT22;8017;50.812;4.934;2023-02-08T14:06:00;6.00;99.90
15834;DHT22;8017;50.812;4.934;2023-02-08T14:09:10;6.10;99.90
15834;DHT22;8017;50.812;4.934;2023-02-08T14:12:21;6.20;99.90
15834;DHT22;8017;50.812;4.934;2023-02-08T14:15:30;6.30;99.90
15834;DHT22;8017;50.812;4.934;2023-02-08T14:18:32;6.30;99.90
15834;DHT22;8017;50.812;4.934;2023-02-08T14:21:37;6.20;99.90
15834;DHT22;8017;50.812;4.934;2023-02-08T14:24:42;6.10;99.90
15834;DHT22;8017;50.812;4.934;2023-02-08T14:27:53;6.20;99.30
15834;DHT22;8017;50.812;4.934;2023-02-08T14:30:58;6.30;99.90
15834;DHT22;8017;50.812;4.934;2023-02-08T14:34:00;6.30;99.90
15834;DHT22;8017;50.812;4.934;2023-02-08T14:37:04;6.20;99.10
15834;DHT22;8017;50.812;4.934;2023-02-08T14:43:58;6.30;99.90
15834;DHT22;8017;50.812;4.934;2023-02-08T14:47:00;6.20;99.90
15834;DHT22;8017;50.812;4.934;2023-02-08T14:50:09;6.30;99.90
15834;DHT22;8017;50.812;4.934;2023-02-08T14:53:19;6.30;99.60
15834;DHT22;8017;50.812;4.934;2023-02-08T14:56:24;6.20;98.30
15834;DHT22;8017;50.812;4.934;2023-02-08T14:59:30;6.20;98.40
15834;DHT22;8017;50.812;4.934;2023-02-08T15:02:33;6.10;98.30
15834;DHT22;8017;50.812;4.934;2023-02-08T15:05:42;6.10;97.80
15834;DHT22;8017;50.812;4.934;2023-02-08T15:08:50;6.10;97.20
15834;DHT22;8017;50.812;4.934;2023-02-08T15:11:59;6.10;97.10
15834;DHT22;8017;50.812;4.934;2023-02-08T15:15:05;6.20;95.80
15834;DHT22;8017;50.812;4.934;2023-02-08T15:18:16;6.20;96.10
15834;DHT22;8017;50.812;4.934;2023-02-08T15:21:22;6.10;96.20
15834;DHT22;8017;50.812;4.934;2023-02-08T15:24:28;6.10;95.70
15834;DHT22;8017;50.812;4.934;2023-02-08T15:27:31;6.10;96.20
15834;DHT22;8017;50.812;4.934;2023-02-08T15:30:37;6.10;96.00
15834;DHT22;8017;50.812;4.934;2023-02-08T15:33:40;6.00;96.00
15834;DHT22;8017;50.812;4.934;2023-02-08T15:36:47;6.00;96.20
15834;DHT22;8017;50.812;4.934;2023-02-08T15:39:51;6.00;96.30
15834;DHT22;8017;50.812;4.934;2023-02-08T15:43:01;5.90;96.00
15834;DHT22;8017;50.812;4.934;2023-02-08T15:46:05;5.90;96.30
15834;DHT22;8017;50.812;4.934;2023-02-08T15:49:11;5.90;96.50
15834;DHT22;8017;50.812;4.934;2023-02-08T15:52:16;5.90;96.60
15834;DHT22;8017;50.812;4.934;2023-02-08T15:55:20;5.80;96.00
15834;DHT22;8017;50.812;4.934;2023-02-08T15:58:27;5.70;96.30
15834;DHT22;8017;50.812;4.934;2023-02-08T16:01:32;5.70;96.20
15834;DHT22;8017;50.812;4.934;2023-02-08T16:04:41;5.70;96.20
15834;DHT22;8017;50.812;4.934;2023-02-08T16:07:44;5.70;96.60
15834;DHT22;8017;50.812;4.934;2023-02-08T16:10:48;5.60;96.40
15834;DHT22;8017;50.812;4.934;2023-02-08T16:13:54;5.60;96.90
15834;DHT22;8017;50.812;4.934;2023-02-08T16:16:58;5.50;96.70
15834;DHT22;8017;50.812;4.934;2023-02-08T16:20:00;5.50;97.10
15834;DHT22;8017;50.812;4.934;2023-02-08T16:23:21;5.30;97.30
15834;DHT22;8017;50.812;4.934;2023-02-08T16:26:25;5.30;97.40
15834;DHT22;8017;50.812;4.934;2023-02-08T16:29:29;5.30;97.90
15834;DHT22;8017;50.812;4.934;2023-02-08T16:32:34;5.10;98.20
15834;DHT22;8017;50.812;4.934;2023-02-08T16:35:39;4.80;98.80
15834;DHT22;8017;50.812;4.934;2023-02-08T16:38:41;4.70;98.90
15834;DHT22;8017;50.812;4.934;2023-02-08T16:42:00;4.50;99.30
15834;DHT22;8017;50.812;4.934;2023-02-08T16:45:23;4.20;99.80
15834;DHT22;8017;50.812;4.934;2023-02-08T16:48:29;4.00;99.90
15834;DHT22;8017;50.812;4.934;2023-02-08T16:51:33;4.00;99.90
15834;DHT22;8017;50.812;4.934;2023-02-08T16:54:35;3.90;99.90
15834;DHT22;8017;50.812;4.934;2023-02-08T16:57:39;3.70;99.90
15834;DHT22;8017;50.812;4.934;2023-02-08T17:00:41;3.50;99.90
15834;DHT22;8017;50.812;4.934;2023-02-08T17:03:45;3.30;99.90
15834;DHT22;8017;50.812;4.934;2023-02-08T17:06:49;3.20;99.90
15834;DHT22;8017;50.812;4.934;2023-02-08T17:09:51;3.10;99.90
15834;DHT22;8017;50.812;4.934;2023-02-08T17:12:54;3.00;99.90
15834;DHT22;8017;50.812;4.934;2023-02-08T17:15:57;2.90;99.90
15834;DHT22;8017;50.812;4.934;2023-02-08T17:19:02;2.90;99.90
15834;DHT22;8017;50.812;4.934;2023-02-08T17:22:05;2.80;99.90
15834;DHT22;8017;50.812;4.934;2023-02-08T17:25:07;2.70;99.90
15834;DHT22;8017;50.812;4.934;2023-02-08T17:28:14;2.60;99.90
15834;DHT22;8017;50.812;4.934;2023-02-08T17:31:17;2.50;99.90
15834;DHT22;8017;50.812;4.934;2023-02-08T17:34:20;2.50;99.90
15834;DHT22;8017;50.812;4.934;2023-02-08T17:37:22;2.50;99.90
15834;DHT22;8017;50.812;4.934;2023-02-08T17:40:26;2.50;99.90
15834;DHT22;8017;50.812;4.934;2023-02-08T17:43:29;2.50;99.90
15834;DHT22;8017;50.812;4.934;2023-02-08T17:46:31;2.30;99.90
15834;DHT22;8017;50.812;4.934;2023-02-08T17:49:35;2.20;99.90
15834;DHT22;8017;50.812;4.934;2023-02-08T17:52:38;2.00;99.90
15834;DHT22;8017;50.812;4.934;2023-02-08T17:55:40;1.80;99.90
15834;DHT22;8017;50.812;4.934;2023-02-08T17:58:42;1.70;99.90
15834;DHT22;8017;50.812;4.934;2023-02-08T18:01:44;1.70;99.90
15834;DHT22;8017;50.812;4.934;2023-02-08T18:04:48;1.70;99.90
15834;DHT22;8017;50.812;4.934;2023-02-08T18:07:50;1.80;99.90
15834;DHT22;8017;50.812;4.934;2023-02-08T18:10:53;1.90;99.90
15834;DHT22;8017;50.812;4.934;2023-02-08T18:13:55;2.00;99.90
15834;DHT22;8017;50.812;4.934;2023-02-08T18:16:57;2.00;99.90
15834;DHT22;8017;50.812;4.934;2023-02-08T18:20:00;2.00;99.90
15834;DHT22;8017;50.812;4.934;2023-02-08T18:23:02;1.90;99.90
15834;DHT22;8017;50.812;4.934;2023-02-08T18:26:06;1.80;99.90
15834;DHT22;8017;50.812;4.934;2023-02-08T18:29:08;1.60;99.90
15834;DHT22;8017;50.812;4.934;2023-02-08T18:32:11;1.50;99.90
15834;DHT22;8017;50.812;4.934;2023-02-08T18:35:14;1.50;99.90
15834;DHT22;8017;50.812;4.934;2023-02-08T18:38:16;1.40;99.90
15834;DHT22;8017;50.812;4.934;2023-02-08T18:41:21;1.30;99.90
15834;DHT22;8017;50.812;4.934;2023-02-08T18:44:23;1.20;99.90
15834;DHT22;8017;50.812;4.934;2023-02-08T18:47:25;1.10;99.90
15834;DHT22;8017;50.812;4.934;2023-02-08T18:50:28;1.00;99.90
15834;DHT22;8017;50.812;4.934;2023-02-08T18:53:32;0.80;99.90
15834;DHT22;8017;50.812;4.934;2023-02-08T18:56:34;0.80;99.90
15834;DHT22;8017;50.812;4.934;2023-02-08T18:59:38;0.70;99.90
15834;DHT22;8017;50.812;4.934;2023-02-08T19:02:42;0.70;99.90
15834;DHT22;8017;50.812;4.934;2023-02-08T19:05:46;0.70;99.90
15834;DHT22;8017;50.812;4.934;2023-02-08T19:08:49;0.60;99.90
15834;DHT22;8017;50.812;4.934;2023-02-08T19:11:52;0.60;99.90
15834;DHT22;8017;50.812;4.934;2023-02-08T19:14:54;0.70;99.90
15834;DHT22;8017;50.812;4.934;2023-02-08T19:17:56;0.80;99.90
15834;DHT22;8017;50.812;4.934;2023-02-08T19:21:03;0.80;99.90
15834;DHT22;8017;50.812;4.934;2023-02-08T19:24:05;0.70;99.90
15834;DHT22;8017;50.812;4.934;2023-02-08T19:27:07;0.70;99.90
15834;DHT22;8017;50.812;4.934;2023-02-08T19:30:10;0.70;99.90
15834;DHT22;8017;50.812;4.934;2023-02-08T19:33:15;0.60;99.90
15834;DHT22;8017;50.812;4.934;2023-02-08T19:36:20;0.50;99.90
15834;DHT22;8017;50.812;4.934;2023-02-08T19:39:25;0.40;99.90
15834;DHT22;8017;50.812;4.934;2023-02-08T19:42:27;0.20;99.90
15834;DHT22;8017;50.812;4.934;2023-02-08T19:45:29;0.20;99.90
15834;DHT22;8017;50.812;4.934;2023-02-08T19:48:31;0.10;99.90
15834;DHT22;8017;50.812;4.934;2023-02-08T19:51:34;0.10;99.90
15834;DHT22;8017;50.812;4.934;2023-02-08T19:54:36;0.00;99.90
15834;DHT22;8017;50.812;4.934;2023-02-08T19:57:39;-0.10;99.90
15834;DHT22;8017;50.812;4.934;2023-02-08T20:00:40;-0.10;99.90
15834;DHT22;8017;50.812;4.934;2023-02-08T20:03:43;-0.30;99.90
15834;DHT22;8017;50.812;4.934;2023-02-08T20:06:50;-0.50;99.90
15834;DHT22;8017;50.812;4.934;2023-02-08T20:09:52;-0.50;99.90
15834;DHT22;8017;50.812;4.934;2023-02-08T20:12:54;-0.60;99.90